sensor_id;sensor_type;location;lat;lon;timestamp;P1;durP1;ratioP1;P2;durP2;ratioP2
27796;SDS011;15177;50.844;4.412;2023-04-16T00:00:24;22.90;;;6.37;;
27796;SDS011;15177;50.844;4.412;2023-04-16T00:02:50;12.83;;;6.10;;
27796;SDS011;15177;50.844;4.412;2023-04-16T00:05:16;20.00;;;6.40;;
27796;SDS011;15177;50.844;4.412;2023-04-16T00:07:41;12.80;;;5.57;;
27796;SDS011;15177;50.844;4.412;2023-04-16T00:10:07;11.07;;;5.93;;
27796;SDS011;15177;50.844;4.412;2023-04-16T00:12:33;18.67;;;6.33;;
27796;SDS011;15177;50.844;4.412;2023-04-16T00:14:58;13.37;;;6.03;;
27796;SDS011;15177;50.844;4.412;2023-04-16T00:17:24;13.03;;;5.30;;
27796;SDS011;15177;50.844;4.412;2023-04-16T00:19:50;8.00;;;5.50;;
27796;SDS011;15177;50.844;4.412;2023-04-16T00:22:15;8.60;;;5.67;;
27796;SDS011;15177;50.844;4.412;2023-04-16T00:24:41;12.27;;;6.10;;
27796;SDS011;15177;50.844;4.412;2023-04-16T00:27:07;10.23;;;6.20;;
27796;SDS011;15177;50.844;4.412;2023-04-16T00:29:32;15.80;;;7.40;;
27796;SDS011;15177;50.844;4.412;2023-04-16T00:31:58;12.37;;;6.50;;
27796;SDS011;15177;50.844;4.412;2023-04-16T00:34:24;13.43;;;6.53;;
27796;SDS011;15177;50.844;4.412;2023-04-16T00:36:50;10.90;;;6.00;;
27796;SDS011;15177;50.844;4.412;2023-04-16T00:39:16;17.03;;;7.63;;
27796;SDS011;15177;50.844;4.412;2023-04-16T00:41:42;9.20;;;5.93;;
27796;SDS011;15177;50.844;4.412;2023-04-16T00:44:08;9.90;;;5.40;;
27796;SDS011;15177;50.844;4.412;2023-04-16T00:46:33;14.77;;;6.07;;
27796;SDS011;15177;50.844;4.412;2023-04-16T00:49:00;10.10;;;5.40;;
27796;SDS011;15177;50.844;4.412;2023-04-16T00:51:27;8.87;;;5.00;;
27796;SDS011;15177;50.844;4.412;2023-04-16T00:53:52;13.63;;;4.83;;
27796;SDS011;15177;50.844;4.412;2023-04-16T00:56:18;12.30;;;5.20;;
27796;SDS011;15177;50.844;4.412;2023-04-16T00:58:46;8.73;;;4.77;;
27796;SDS011;15177;50.844;4.412;2023-04-16T01:01:12;15.87;;;4.87;;
27796;SDS011;15177;50.844;4.412;2023-04-16T01:03:44;10.27;;;5.87;;
27796;SDS011;15177;50.844;4.412;2023-04-16T01:06:11;13.10;;;4.93;;
27796;SDS011;15177;50.844;4.412;2023-04-16T01:08:38;10.60;;;5.27;;
27796;SDS011;15177;50.844;4.412;2023-04-16T01:11:05;15.30;;;5.80;;
27796;SDS011;15177;50.844;4.412;2023-04-16T01:13:31;18.50;;;5.83;;
27796;SDS011;15177;50.844;4.412;2023-04-16T01:15:59;17.83;;;5.70;;
27796;SDS011;15177;50.844;4.412;2023-04-16T01:18:25;13.50;;;6.20;;
27796;SDS011;15177;50.844;4.412;2023-04-16T01:20:51;11.47;;;5.43;;
27796;SDS011;15177;50.844;4.412;2023-04-16T01:23:17;7.23;;;4.20;;
27796;SDS011;15177;50.844;4.412;2023-04-16T01:25:44;9.70;;;4.50;;
27796;SDS011;15177;50.844;4.412;2023-04-16T01:28:10;10.33;;;4.13;;
27796;SDS011;15177;50.844;4.412;2023-04-16T01:30:36;9.37;;;4.13;;
27796;SDS011;15177;50.844;4.412;2023-04-16T01:33:01;6.47;;;3.30;;
27796;SDS011;15177;50.844;4.412;2023-04-16T01:35:27;11.00;;;3.27;;
27796;SDS011;15177;50.844;4.412;2023-04-16T01:37:53;10.67;;;3.20;;
27796;SDS011;15177;50.844;4.412;2023-04-16T01:40:18;7.30;;;3.10;;
27796;SDS011;15177;50.844;4.412;2023-04-16T01:42:44;9.97;;;3.33;;
27796;SDS011;15177;50.844;4.412;2023-04-16T01:45:10;8.37;;;3.10;;
27796;SDS011;15177;50.844;4.412;2023-04-16T01:47:36;9.97;;;3.20;;
27796;SDS011;15177;50.844;4.412;2023-04-16T01:50:02;8.30;;;3.07;;
27796;SDS011;15177;50.844;4.412;2023-04-16T01:52:28;5.10;;;3.00;;
27796;SDS011;15177;50.844;4.412;2023-04-16T01:54:54;8.97;;;3.40;;
27796;SDS011;15177;50.844;4.412;2023-04-16T01:57:19;11.23;;;3.47;;
27796;SDS011;15177;50.844;4.412;2023-04-16T01:59:45;4.60;;;3.33;;
27796;SDS011;15177;50.844;4.412;2023-04-16T02:02:11;6.90;;;3.30;;
27796;SDS011;15177;50.844;4.412;2023-04-16T02:04:41;7.90;;;3.47;;
27796;SDS011;15177;50.844;4.412;2023-04-16T02:07:09;6.43;;;3.80;;
27796;SDS011;15177;50.844;4.412;2023-04-16T02:09:35;6.80;;;3.47;;
27796;SDS011;15177;50.844;4.412;2023-04-16T02:12:01;9.73;;;3.40;;
27796;SDS011;15177;50.844;4.412;2023-04-16T02:14:28;11.23;;;3.50;;
27796;SDS011;15177;50.844;4.412;2023-04-16T02:16:54;3.97;;;2.90;;
27796;SDS011;15177;50.844;4.412;2023-04-16T02:19:20;9.17;;;3.50;;
27796;SDS011;15177;50.844;4.412;2023-04-16T02:21:46;9.43;;;3.77;;
27796;SDS011;15177;50.844;4.412;2023-04-16T02:24:13;7.07;;;3.33;;
27796;SDS011;15177;50.844;4.412;2023-04-16T02:26:38;5.30;;;3.57;;
27796;SDS011;15177;50.844;4.412;2023-04-16T02:29:04;10.90;;;3.80;;
27796;SDS011;15177;50.844;4.412;2023-04-16T02:31:30;9.87;;;3.47;;
27796;SDS011;15177;50.844;4.412;2023-04-16T02:33:56;6.77;;;3.50;;
27796;SDS011;15177;50.844;4.412;2023-04-16T02:36:21;7.90;;;3.40;;
27796;SDS011;15177;50.844;4.412;2023-04-16T02:38:47;7.13;;;3.57;;
27796;SDS011;15177;50.844;4.412;2023-04-16T02:41:13;8.63;;;3.63;;
27796;SDS011;15177;50.844;4.412;2023-04-16T02:43:39;11.77;;;3.77;;
27796;SDS011;15177;50.844;4.412;2023-04-16T02:46:05;9.77;;;3.50;;
27796;SDS011;15177;50.844;4.412;2023-04-16T02:48:30;11.00;;;3.50;;
27796;SDS011;15177;50.844;4.412;2023-04-16T02:50:56;7.27;;;3.30;;
27796;SDS011;15177;50.844;4.412;2023-04-16T02:53:22;8.57;;;3.70;;
27796;SDS011;15177;50.844;4.412;2023-04-16T02:55:49;10.40;;;3.80;;
27796;SDS011;15177;50.844;4.412;2023-04-16T02:58:22;8.57;;;3.43;;
27796;SDS011;15177;50.844;4.412;2023-04-16T03:00:50;8.63;;;4.20;;
27796;SDS011;15177;50.844;4.412;2023-04-16T03:03:16;6.03;;;3.50;;
27796;SDS011;15177;50.844;4.412;2023-04-16T03:05:42;8.83;;;3.73;;
27796;SDS011;15177;50.844;4.412;2023-04-16T03:08:08;8.00;;;4.17;;
27796;SDS011;15177;50.844;4.412;2023-04-16T03:10:33;10.40;;;3.90;;
27796;SDS011;15177;50.844;4.412;2023-04-16T03:13:00;10.67;;;3.83;;
27796;SDS011;15177;50.844;4.412;2023-04-16T03:15:26;8.83;;;3.40;;
27796;SDS011;15177;50.844;4.412;2023-04-16T03:17:52;9.63;;;4.40;;
27796;SDS011;15177;50.844;4.412;2023-04-16T03:20:18;13.77;;;5.23;;
27796;SDS011;15177;50.844;4.412;2023-04-16T03:22:44;10.10;;;4.67;;
27796;SDS011;15177;50.844;4.412;2023-04-16T03:25:13;11.70;;;4.17;;
27796;SDS011;15177;50.844;4.412;2023-04-16T03:27:38;13.67;;;3.87;;
27796;SDS011;15177;50.844;4.412;2023-04-16T03:30:07;8.47;;;3.97;;
27796;SDS011;15177;50.844;4.412;2023-04-16T03:32:36;4.90;;;3.33;;
27796;SDS011;15177;50.844;4.412;2023-04-16T03:35:02;6.30;;;3.50;;
27796;SDS011;15177;50.844;4.412;2023-04-16T03:37:29;9.33;;;3.97;;
27796;SDS011;15177;50.844;4.412;2023-04-16T03:39:54;7.03;;;3.87;;
27796;SDS011;15177;50.844;4.412;2023-04-16T03:42:20;7.40;;;3.63;;
27796;SDS011;15177;50.844;4.412;2023-04-16T03:44:46;10.23;;;3.47;;
27796;SDS011;15177;50.844;4.412;2023-04-16T03:47:11;14.97;;;4.07;;
27796;SDS011;15177;50.844;4.412;2023-04-16T03:49:37;8.93;;;3.03;;
27796;SDS011;15177;50.844;4.412;2023-04-16T03:52:02;7.97;;;3.47;;
27796;SDS011;15177;50.844;4.412;2023-04-16T03:54:28;9.37;;;3.00;;
27796;SDS011;15177;50.844;4.412;2023-04-16T03:56:54;12.80;;;3.00;;
27796;SDS011;15177;50.844;4.412;2023-04-16T03:59:21;7.73;;;3.13;;
27796;SDS011;15177;50.844;4.412;2023-04-16T04:01:46;13.73;;;3.23;;
27796;SDS011;15177;50.844;4.412;2023-04-16T04:04:12;10.70;;;3.57;;
27796;SDS011;15177;50.844;4.412;2023-04-16T04:06:37;13.67;;;3.77;;
27796;SDS011;15177;50.844;4.412;2023-04-16T04:09:03;13.10;;;2.97;;
27796;SDS011;15177;50.844;4.412;2023-04-16T04:11:29;11.77;;;3.50;;
27796;SDS011;15177;50.844;4.412;2023-04-16T04:13:55;8.23;;;3.27;;
27796;SDS011;15177;50.844;4.412;2023-04-16T04:16:21;13.93;;;4.53;;
27796;SDS011;15177;50.844;4.412;2023-04-16T04:18:46;11.00;;;3.80;;
27796;SDS011;15177;50.844;4.412;2023-04-16T04:21:12;11.50;;;4.00;;
27796;SDS011;15177;50.844;4.412;2023-04-16T04:23:37;15.27;;;4.67;;
27796;SDS011;15177;50.844;4.412;2023-04-16T04:26:05;10.27;;;4.10;;
27796;SDS011;15177;50.844;4.412;2023-04-16T04:28:31;9.60;;;4.87;;
27796;SDS011;15177;50.844;4.412;2023-04-16T04:30:57;12.57;;;4.63;;
27796;SDS011;15177;50.844;4.412;2023-04-16T04:33:26;11.97;;;4.70;;
27796;SDS011;15177;50.844;4.412;2023-04-16T04:35:53;12.27;;;5.13;;
27796;SDS011;15177;50.844;4.412;2023-04-16T04:38:19;10.13;;;5.77;;
27796;SDS011;15177;50.844;4.412;2023-04-16T04:40:46;10.07;;;6.03;;
27796;SDS011;15177;50.844;4.412;2023-04-16T04:43:12;11.53;;;5.93;;
27796;SDS011;15177;50.844;4.412;2023-04-16T04:45:38;17.23;;;6.43;;
27796;SDS011;15177;50.844;4.412;2023-04-16T04:48:04;13.60;;;6.77;;
27796;SDS011;15177;50.844;4.412;2023-04-16T04:50:30;14.13;;;6.43;;
27796;SDS011;15177;50.844;4.412;2023-04-16T04:52:56;15.33;;;6.73;;
27796;SDS011;15177;50.844;4.412;2023-04-16T04:55:22;14.17;;;7.23;;
27796;SDS011;15177;50.844;4.412;2023-04-16T04:57:48;20.93;;;7.37;;
27796;SDS011;15177;50.844;4.412;2023-04-16T05:00:14;14.27;;;7.20;;
27796;SDS011;15177;50.844;4.412;2023-04-16T05:02:40;21.10;;;7.07;;
27796;SDS011;15177;50.844;4.412;2023-04-16T05:05:05;13.40;;;6.27;;
27796;SDS011;15177;50.844;4.412;2023-04-16T05:07:31;17.87;;;5.77;;
27796;SDS011;15177;50.844;4.412;2023-04-16T05:09:57;12.97;;;5.27;;
27796;SDS011;15177;50.844;4.412;2023-04-16T05:12:23;10.23;;;5.17;;
27796;SDS011;15177;50.844;4.412;2023-04-16T05:14:48;16.27;;;6.00;;
27796;SDS011;15177;50.844;4.412;2023-04-16T05:17:14;11.17;;;5.07;;
27796;SDS011;15177;50.844;4.412;2023-04-16T05:19:40;9.97;;;4.40;;
27796;SDS011;15177;50.844;4.412;2023-04-16T05:22:06;8.33;;;4.20;;
27796;SDS011;15177;50.844;4.412;2023-04-16T05:24:31;10.33;;;4.23;;
27796;SDS011;15177;50.844;4.412;2023-04-16T05:26:57;11.77;;;4.03;;
27796;SDS011;15177;50.844;4.412;2023-04-16T05:29:22;10.60;;;3.73;;
27796;SDS011;15177;50.844;4.412;2023-04-16T05:31:48;14.40;;;4.20;;
27796;SDS011;15177;50.844;4.412;2023-04-16T05:34:14;8.23;;;3.77;;
27796;SDS011;15177;50.844;4.412;2023-04-16T05:36:40;8.90;;;3.67;;
27796;SDS011;15177;50.844;4.412;2023-04-16T05:39:05;8.37;;;3.20;;
27796;SDS011;15177;50.844;4.412;2023-04-16T05:41:32;8.83;;;4.57;;
27796;SDS011;15177;50.844;4.412;2023-04-16T05:43:58;6.33;;;3.63;;
27796;SDS011;15177;50.844;4.412;2023-04-16T05:46:23;7.57;;;3.00;;
27796;SDS011;15177;50.844;4.412;2023-04-16T05:48:49;10.67;;;4.23;;
27796;SDS011;15177;50.844;4.412;2023-04-16T05:51:15;11.97;;;3.63;;
27796;SDS011;15177;50.844;4.412;2023-04-16T05:53:41;11.17;;;3.73;;
27796;SDS011;15177;50.844;4.412;2023-04-16T05:56:07;8.23;;;3.33;;
27796;SDS011;15177;50.844;4.412;2023-04-16T05:58:33;9.40;;;3.60;;
27796;SDS011;15177;50.844;4.412;2023-04-16T06:00:59;7.03;;;3.23;;
27796;SDS011;15177;50.844;4.412;2023-04-16T06:03:25;21.23;;;5.30;;
27796;SDS011;15177;50.844;4.412;2023-04-16T06:05:51;13.43;;;3.47;;
27796;SDS011;15177;50.844;4.412;2023-04-16T06:08:17;12.30;;;4.20;;
27796;SDS011;15177;50.844;4.412;2023-04-16T06:10:44;14.70;;;3.70;;
27796;SDS011;15177;50.844;4.412;2023-04-16T06:13:11;9.57;;;3.87;;
27796;SDS011;15177;50.844;4.412;2023-04-16T06:15:37;10.13;;;3.57;;
27796;SDS011;15177;50.844;4.412;2023-04-16T06:18:02;14.07;;;4.90;;
27796;SDS011;15177;50.844;4.412;2023-04-16T06:20:28;12.37;;;3.93;;
27796;SDS011;15177;50.844;4.412;2023-04-16T06:22:54;12.70;;;4.70;;
27796;SDS011;15177;50.844;4.412;2023-04-16T06:25:20;13.00;;;4.20;;
27796;SDS011;15177;50.844;4.412;2023-04-16T06:27:46;15.10;;;4.57;;
27796;SDS011;15177;50.844;4.412;2023-04-16T06:30:12;17.90;;;5.50;;
27796;SDS011;15177;50.844;4.412;2023-04-16T06:32:38;15.37;;;5.90;;
27796;SDS011;15177;50.844;4.412;2023-04-16T06:35:04;18.93;;;5.10;;
27796;SDS011;15177;50.844;4.412;2023-04-16T06:37:30;13.60;;;5.37;;
27796;SDS011;15177;50.844;4.412;2023-04-16T06:39:56;11.93;;;5.97;;
27796;SDS011;15177;50.844;4.412;2023-04-16T06:42:22;15.47;;;5.97;;
27796;SDS011;15177;50.844;4.412;2023-04-16T06:44:48;12.83;;;5.30;;
27796;SDS011;15177;50.844;4.412;2023-04-16T06:47:14;12.07;;;5.17;;
27796;SDS011;15177;50.844;4.412;2023-04-16T06:49:40;10.83;;;4.70;;
27796;SDS011;15177;50.844;4.412;2023-04-16T06:52:06;15.80;;;5.50;;
27796;SDS011;15177;50.844;4.412;2023-04-16T06:54:31;9.57;;;4.83;;
27796;SDS011;15177;50.844;4.412;2023-04-16T06:56:57;10.07;;;5.27;;
27796;SDS011;15177;50.844;4.412;2023-04-16T06:59:22;12.63;;;5.50;;
27796;SDS011;15177;50.844;4.412;2023-04-16T07:01:48;13.43;;;5.50;;
27796;SDS011;15177;50.844;4.412;2023-04-16T07:04:14;13.43;;;5.90;;
27796;SDS011;15177;50.844;4.412;2023-04-16T07:06:39;17.70;;;7.33;;
27796;SDS011;15177;50.844;4.412;2023-04-16T07:09:05;17.97;;;6.93;;
27796;SDS011;15177;50.844;4.412;2023-04-16T07:11:31;22.03;;;7.90;;
27796;SDS011;15177;50.844;4.412;2023-04-16T07:13:56;12.27;;;7.00;;
27796;SDS011;15177;50.844;4.412;2023-04-16T07:16:22;19.03;;;8.47;;
27796;SDS011;15177;50.844;4.412;2023-04-16T07:18:48;18.13;;;8.27;;
27796;SDS011;15177;50.844;4.412;2023-04-16T07:21:14;15.40;;;8.30;;
27796;SDS011;15177;50.844;4.412;2023-04-16T07:23:40;23.73;;;8.50;;
27796;SDS011;15177;50.844;4.412;2023-04-16T07:26:06;25.83;;;9.97;;
27796;SDS011;15177;50.844;4.412;2023-04-16T07:28:31;17.97;;;8.93;;
27796;SDS011;15177;50.844;4.412;2023-04-16T07:30:57;29.47;;;9.93;;
27796;SDS011;15177;50.844;4.412;2023-04-16T07:33:23;24.83;;;10.07;;
27796;SDS011;15177;50.844;4.412;2023-04-16T07:35:48;22.70;;;10.13;;
27796;SDS011;15177;50.844;4.412;2023-04-16T07:38:15;22.70;;;9.53;;
27796;SDS011;15177;50.844;4.412;2023-04-16T07:40:40;20.20;;;8.63;;
27796;SDS011;15177;50.844;4.412;2023-04-16T07:43:07;23.40;;;8.93;;
27796;SDS011;15177;50.844;4.412;2023-04-16T07:45:34;16.43;;;7.63;;
27796;SDS011;15177;50.844;4.412;2023-04-16T07:47:59;15.77;;;8.83;;
27796;SDS011;15177;50.844;4.412;2023-04-16T07:50:25;25.53;;;7.80;;
27796;SDS011;15177;50.844;4.412;2023-04-16T07:52:52;18.93;;;8.30;;
27796;SDS011;15177;50.844;4.412;2023-04-16T07:55:17;16.50;;;8.37;;
27796;SDS011;15177;50.844;4.412;2023-04-16T07:57:43;22.43;;;8.67;;
27796;SDS011;15177;50.844;4.412;2023-04-16T08:00:09;19.07;;;9.67;;
27796;SDS011;15177;50.844;4.412;2023-04-16T08:02:35;21.10;;;9.50;;
27796;SDS011;15177;50.844;4.412;2023-04-16T08:05:01;23.20;;;10.10;;
27796;SDS011;15177;50.844;4.412;2023-04-16T08:07:27;28.73;;;10.00;;
27796;SDS011;15177;50.844;4.412;2023-04-16T08:09:52;24.83;;;10.23;;
27796;SDS011;15177;50.844;4.412;2023-04-16T08:12:18;24.77;;;10.13;;
27796;SDS011;15177;50.844;4.412;2023-04-16T08:14:45;27.67;;;9.87;;
27796;SDS011;15177;50.844;4.412;2023-04-16T08:17:14;22.70;;;11.13;;
27796;SDS011;15177;50.844;4.412;2023-04-16T08:19:41;26.37;;;9.93;;
27796;SDS011;15177;50.844;4.412;2023-04-16T08:22:07;17.97;;;9.20;;
27796;SDS011;15177;50.844;4.412;2023-04-16T08:24:33;19.87;;;9.03;;
27796;SDS011;15177;50.844;4.412;2023-04-16T08:26:59;18.80;;;9.10;;
27796;SDS011;15177;50.844;4.412;2023-04-16T08:29:24;19.97;;;10.00;;
27796;SDS011;15177;50.844;4.412;2023-04-16T08:31:50;20.73;;;10.27;;
27796;SDS011;15177;50.844;4.412;2023-04-16T08:34:19;19.43;;;9.20;;
27796;SDS011;15177;50.844;4.412;2023-04-16T08:36:45;25.60;;;10.67;;
27796;SDS011;15177;50.844;4.412;2023-04-16T08:39:11;24.83;;;9.10;;
27796;SDS011;15177;50.844;4.412;2023-04-16T08:41:37;20.07;;;8.53;;
27796;SDS011;15177;50.844;4.412;2023-04-16T08:44:10;26.93;;;10.27;;
27796;SDS011;15177;50.844;4.412;2023-04-16T08:46:45;20.87;;;10.47;;
27796;SDS011;15177;50.844;4.412;2023-04-16T08:49:12;20.13;;;10.33;;
27796;SDS011;15177;50.844;4.412;2023-04-16T08:51:49;22.13;;;10.77;;
27796;SDS011;15177;50.844;4.412;2023-04-16T08:54:38;27.93;;;11.87;;
27796;SDS011;15177;50.844;4.412;2023-04-16T08:57:02;22.23;;;10.83;;
27796;SDS011;15177;50.844;4.412;2023-04-16T08:59:30;27.70;;;11.30;;
27796;SDS011;15177;50.844;4.412;2023-04-16T09:01:57;27.57;;;11.90;;
27796;SDS011;15177;50.844;4.412;2023-04-16T09:04:26;24.37;;;11.33;;
27796;SDS011;15177;50.844;4.412;2023-04-16T09:06:53;23.50;;;10.93;;
27796;SDS011;15177;50.844;4.412;2023-04-16T09:09:20;35.20;;;13.50;;
27796;SDS011;15177;50.844;4.412;2023-04-16T09:11:50;28.07;;;12.50;;
27796;SDS011;15177;50.844;4.412;2023-04-16T09:14:17;31.50;;;13.03;;
27796;SDS011;15177;50.844;4.412;2023-04-16T09:16:44;30.53;;;12.90;;
27796;SDS011;15177;50.844;4.412;2023-04-16T09:19:11;32.97;;;12.50;;
27796;SDS011;15177;50.844;4.412;2023-04-16T09:21:39;28.43;;;12.57;;
27796;SDS011;15177;50.844;4.412;2023-04-16T09:24:05;27.03;;;12.90;;
27796;SDS011;15177;50.844;4.412;2023-04-16T09:26:33;24.60;;;11.63;;
27796;SDS011;15177;50.844;4.412;2023-04-16T09:28:59;30.50;;;11.67;;
27796;SDS011;15177;50.844;4.412;2023-04-16T09:31:24;21.90;;;12.53;;
27796;SDS011;15177;50.844;4.412;2023-04-16T09:34:07;31.57;;;12.67;;
27796;SDS011;15177;50.844;4.412;2023-04-16T09:36:34;24.90;;;11.97;;
27796;SDS011;15177;50.844;4.412;2023-04-16T09:39:00;26.60;;;12.67;;
27796;SDS011;15177;50.844;4.412;2023-04-16T09:41:28;26.57;;;12.23;;
27796;SDS011;15177;50.844;4.412;2023-04-16T09:43:59;25.40;;;11.83;;
27796;SDS011;15177;50.844;4.412;2023-04-16T09:49:22;25.80;;;12.20;;
27796;SDS011;15177;50.844;4.412;2023-04-16T09:51:48;20.93;;;10.80;;
27796;SDS011;15177;50.844;4.412;2023-04-16T09:54:17;23.27;;;11.90;;
27796;SDS011;15177;50.844;4.412;2023-04-16T09:56:44;21.53;;;10.53;;
27796;SDS011;15177;50.844;4.412;2023-04-16T09:59:16;23.97;;;10.80;;
27796;SDS011;15177;50.844;4.412;2023-04-16T10:01:43;22.03;;;10.87;;
27796;SDS011;15177;50.844;4.412;2023-04-16T10:04:10;25.30;;;10.67;;
27796;SDS011;15177;50.844;4.412;2023-04-16T10:06:36;25.50;;;10.97;;
27796;SDS011;15177;50.844;4.412;2023-04-16T10:09:04;26.37;;;11.20;;
27796;SDS011;15177;50.844;4.412;2023-04-16T10:11:32;27.90;;;10.80;;
27796;SDS011;15177;50.844;4.412;2023-04-16T10:13:58;25.07;;;11.03;;
27796;SDS011;15177;50.844;4.412;2023-04-16T10:16:24;30.87;;;11.47;;
27796;SDS011;15177;50.844;4.412;2023-04-16T10:18:52;24.97;;;11.93;;
27796;SDS011;15177;50.844;4.412;2023-04-16T10:21:18;22.17;;;13.47;;
27796;SDS011;15177;50.844;4.412;2023-04-16T10:23:45;21.23;;;11.87;;
27796;SDS011;15177;50.844;4.412;2023-04-16T10:26:13;23.20;;;12.20;;
27796;SDS011;15177;50.844;4.412;2023-04-16T10:28:39;32.93;;;12.50;;
27796;SDS011;15177;50.844;4.412;2023-04-16T10:31:06;33.40;;;12.70;;
27796;SDS011;15177;50.844;4.412;2023-04-16T10:33:34;27.57;;;12.97;;
27796;SDS011;15177;50.844;4.412;2023-04-16T10:36:14;25.20;;;12.87;;
27796;SDS011;15177;50.844;4.412;2023-04-16T10:41:18;22.43;;;11.83;;
27796;SDS011;15177;50.844;4.412;2023-04-16T10:43:48;33.13;;;13.20;;
27796;SDS011;15177;50.844;4.412;2023-04-16T10:49:00;28.00;;;11.77;;
27796;SDS011;15177;50.844;4.412;2023-04-16T10:51:56;24.97;;;10.73;;
27796;SDS011;15177;50.844;4.412;2023-04-16T10:54:26;24.30;;;12.60;;
27796;SDS011;15177;50.844;4.412;2023-04-16T10:56:56;27.67;;;11.33;;
27796;SDS011;15177;50.844;4.412;2023-04-16T10:59:23;25.63;;;11.07;;
27796;SDS011;15177;50.844;4.412;2023-04-16T11:01:54;32.60;;;12.83;;
27796;SDS011;15177;50.844;4.412;2023-04-16T11:04:26;21.50;;;10.83;;
27796;SDS011;15177;50.844;4.412;2023-04-16T11:12:34;27.70;;;11.17;;
27796;SDS011;15177;50.844;4.412;2023-04-16T11:15:09;29.53;;;11.07;;
27796;SDS011;15177;50.844;4.412;2023-04-16T11:17:46;25.57;;;11.63;;
27796;SDS011;15177;50.844;4.412;2023-04-16T11:20:15;25.63;;;12.33;;
27796;SDS011;15177;50.844;4.412;2023-04-16T11:22:44;30.37;;;12.13;;
27796;SDS011;15177;50.844;4.412;2023-04-16T11:25:10;23.47;;;12.47;;
27796;SDS011;15177;50.844;4.412;2023-04-16T11:27:36;29.53;;;12.83;;
27796;SDS011;15177;50.844;4.412;2023-04-16T11:32:32;30.97;;;12.53;;
27796;SDS011;15177;50.844;4.412;2023-04-16T11:34:59;32.87;;;12.63;;
27796;SDS011;15177;50.844;4.412;2023-04-16T11:37:35;24.80;;;13.30;;
27796;SDS011;15177;50.844;4.412;2023-04-16T11:40:02;29.27;;;11.90;;
27796;SDS011;15177;50.844;4.412;2023-04-16T11:42:30;26.63;;;12.13;;
27796;SDS011;15177;50.844;4.412;2023-04-16T11:44:57;25.13;;;12.17;;
27796;SDS011;15177;50.844;4.412;2023-04-16T11:47:27;23.07;;;12.27;;
27796;SDS011;15177;50.844;4.412;2023-04-16T11:49:54;31.17;;;12.13;;
27796;SDS011;15177;50.844;4.412;2023-04-16T11:52:27;21.23;;;12.10;;
27796;SDS011;15177;50.844;4.412;2023-04-16T11:54:54;25.13;;;12.53;;
27796;SDS011;15177;50.844;4.412;2023-04-16T11:57:24;26.50;;;13.60;;
27796;SDS011;15177;50.844;4.412;2023-04-16T11:59:50;27.43;;;13.67;;
27796;SDS011;15177;50.844;4.412;2023-04-16T12:02:16;30.13;;;14.23;;
27796;SDS011;15177;50.844;4.412;2023-04-16T12:04:42;27.77;;;13.50;;
27796;SDS011;15177;50.844;4.412;2023-04-16T12:07:08;27.93;;;13.20;;
27796;SDS011;15177;50.844;4.412;2023-04-16T12:09:38;25.97;;;13.37;;
27796;SDS011;15177;50.844;4.412;2023-04-16T12:12:05;34.07;;;14.37;;
27796;SDS011;15177;50.844;4.412;2023-04-16T12:14:49;30.47;;;14.10;;
27796;SDS011;15177;50.844;4.412;2023-04-16T12:17:18;24.10;;;13.33;;
27796;SDS011;15177;50.844;4.412;2023-04-16T12:19:51;25.40;;;13.47;;
27796;SDS011;15177;50.844;4.412;2023-04-16T12:25:03;26.90;;;14.60;;
27796;SDS011;15177;50.844;4.412;2023-04-16T12:27:47;23.37;;;12.93;;
27796;SDS011;15177;50.844;4.412;2023-04-16T12:30:17;25.47;;;12.50;;
27796;SDS011;15177;50.844;4.412;2023-04-16T12:32:46;28.10;;;13.27;;
27796;SDS011;15177;50.844;4.412;2023-04-16T12:35:18;24.03;;;11.73;;
27796;SDS011;15177;50.844;4.412;2023-04-16T12:37:57;25.40;;;13.40;;
27796;SDS011;15177;50.844;4.412;2023-04-16T12:40:23;28.33;;;13.77;;
27796;SDS011;15177;50.844;4.412;2023-04-16T12:42:49;30.47;;;13.67;;
27796;SDS011;15177;50.844;4.412;2023-04-16T12:45:15;29.67;;;14.10;;
27796;SDS011;15177;50.844;4.412;2023-04-16T12:47:41;33.97;;;14.20;;
27796;SDS011;15177;50.844;4.412;2023-04-16T12:50:06;27.57;;;14.93;;
27796;SDS011;15177;50.844;4.412;2023-04-16T12:52:33;29.60;;;14.73;;
27796;SDS011;15177;50.844;4.412;2023-04-16T12:55:02;27.93;;;13.97;;
27796;SDS011;15177;50.844;4.412;2023-04-16T12:57:28;30.20;;;13.53;;
27796;SDS011;15177;50.844;4.412;2023-04-16T12:59:54;26.30;;;12.23;;
27796;SDS011;15177;50.844;4.412;2023-04-16T13:02:21;29.57;;;13.67;;
27796;SDS011;15177;50.844;4.412;2023-04-16T13:04:47;29.03;;;13.17;;
27796;SDS011;15177;50.844;4.412;2023-04-16T13:07:13;31.93;;;13.47;;
27796;SDS011;15177;50.844;4.412;2023-04-16T13:09:39;32.13;;;15.23;;
27796;SDS011;15177;50.844;4.412;2023-04-16T13:12:05;25.73;;;15.20;;
27796;SDS011;15177;50.844;4.412;2023-04-16T13:14:32;31.47;;;15.60;;
27796;SDS011;15177;50.844;4.412;2023-04-16T13:16:58;33.30;;;16.47;;
27796;SDS011;15177;50.844;4.412;2023-04-16T13:19:23;31.43;;;15.73;;
27796;SDS011;15177;50.844;4.412;2023-04-16T13:21:49;29.93;;;15.20;;
27796;SDS011;15177;50.844;4.412;2023-04-16T13:24:15;27.27;;;14.13;;
27796;SDS011;15177;50.844;4.412;2023-04-16T13:26:40;26.80;;;14.80;;
27796;SDS011;15177;50.844;4.412;2023-04-16T13:29:07;41.70;;;14.77;;
27796;SDS011;15177;50.844;4.412;2023-04-16T13:31:34;31.37;;;15.83;;
27796;SDS011;15177;50.844;4.412;2023-04-16T13:34:00;29.93;;;15.03;;
27796;SDS011;15177;50.844;4.412;2023-04-16T13:36:28;28.70;;;15.03;;
27796;SDS011;15177;50.844;4.412;2023-04-16T13:38:56;30.37;;;15.63;;
27796;SDS011;15177;50.844;4.412;2023-04-16T13:41:22;32.33;;;17.03;;
27796;SDS011;15177;50.844;4.412;2023-04-16T13:43:49;28.37;;;15.40;;
27796;SDS011;15177;50.844;4.412;2023-04-16T13:46:14;30.30;;;16.33;;
27796;SDS011;15177;50.844;4.412;2023-04-16T13:48:40;32.60;;;17.00;;
27796;SDS011;15177;50.844;4.412;2023-04-16T13:51:06;26.73;;;16.00;;
27796;SDS011;15177;50.844;4.412;2023-04-16T13:53:32;31.37;;;15.07;;
27796;SDS011;15177;50.844;4.412;2023-04-16T13:55:58;30.67;;;16.93;;
27796;SDS011;15177;50.844;4.412;2023-04-16T13:58:24;28.90;;;15.20;;
27796;SDS011;15177;50.844;4.412;2023-04-16T14:00:50;27.80;;;17.00;;
27796;SDS011;15177;50.844;4.412;2023-04-16T14:03:16;31.57;;;17.60;;
27796;SDS011;15177;50.844;4.412;2023-04-16T14:05:42;36.93;;;16.73;;
27796;SDS011;15177;50.844;4.412;2023-04-16T14:08:07;29.57;;;16.53;;
27796;SDS011;15177;50.844;4.412;2023-04-16T14:10:34;27.30;;;16.63;;
27796;SDS011;15177;50.844;4.412;2023-04-16T14:12:59;30.33;;;16.53;;
27796;SDS011;15177;50.844;4.412;2023-04-16T14:15:25;30.23;;;18.53;;
27796;SDS011;15177;50.844;4.412;2023-04-16T14:17:53;32.13;;;17.43;;
27796;SDS011;15177;50.844;4.412;2023-04-16T14:20:19;29.20;;;15.80;;
27796;SDS011;15177;50.844;4.412;2023-04-16T14:22:46;26.70;;;16.17;;
27796;SDS011;15177;50.844;4.412;2023-04-16T14:25:12;30.03;;;15.57;;
27796;SDS011;15177;50.844;4.412;2023-04-16T14:27:37;28.97;;;16.73;;
27796;SDS011;15177;50.844;4.412;2023-04-16T14:30:04;27.97;;;16.33;;
27796;SDS011;15177;50.844;4.412;2023-04-16T14:32:30;33.57;;;17.97;;
27796;SDS011;15177;50.844;4.412;2023-04-16T14:34:55;24.80;;;16.13;;
27796;SDS011;15177;50.844;4.412;2023-04-16T14:37:21;29.57;;;17.43;;
27796;SDS011;15177;50.844;4.412;2023-04-16T14:39:47;30.30;;;18.73;;
27796;SDS011;15177;50.844;4.412;2023-04-16T14:42:13;33.47;;;18.10;;
27796;SDS011;15177;50.844;4.412;2023-04-16T14:44:39;32.30;;;17.93;;
27796;SDS011;15177;50.844;4.412;2023-04-16T14:47:04;31.93;;;18.13;;